createdAt,value
2019-02-27T00:00:22.133Z,93.90
2019-02-27T00:02:50.650Z,93.90
2019-02-27T00:05:19.122Z,93.80
2019-02-27T00:07:47.623Z,93.80
2019-02-27T00:10:16.092Z,93.70
2019-02-27T00:12:44.595Z,93.80
2019-02-27T00:15:13.060Z,94.00
2019-02-27T00:17:41.475Z,93.70
2019-02-27T00:20:09.972Z,93.70
2019-02-27T00:22:38.469Z,93.60
2019-02-27T00:25:06.879Z,93.60
2019-02-27T00:27:35.370Z,93.60
2019-02-27T00:30:05.754Z,93.50
2019-02-27T00:32:34.279Z,93.40
2019-02-27T00:35:06.458Z,93.20
2019-02-27T00:37:32.794Z,93.20
2019-02-27T00:40:05.402Z,93.10
2019-02-27T00:42:33.796Z,93.00
2019-02-27T00:45:01.342Z,93.00
2019-02-27T00:47:29.723Z,93.00
2019-02-27T00:49:58.642Z,92.80
2019-02-27T00:52:27.094Z,92.80
2019-02-27T00:54:55.509Z,92.70
2019-02-27T00:57:24.008Z,92.50
2019-02-27T00:59:52.627Z,92.30
2019-02-27T01:02:20.992Z,92.30
2019-02-27T01:04:49.551Z,92.30
2019-02-27T01:07:20.737Z,92.40
2019-02-27T01:09:48.154Z,92.30
2019-02-27T01:12:16.569Z,92.30
2019-02-27T01:14:45.055Z,92.20
2019-02-27T01:17:13.476Z,92.10
2019-02-27T01:19:42.914Z,91.90
2019-02-27T01:22:11.494Z,91.90
2019-02-27T01:24:39.943Z,92.00
2019-02-27T01:27:08.356Z,92.00
2019-02-27T01:29:36.850Z,91.90
2019-02-27T01:32:05.261Z,92.00
2019-02-27T01:34:33.744Z,92.00
2019-02-27T01:37:02.158Z,92.00
2019-02-27T01:39:30.636Z,92.00
2019-02-27T01:42:07.883Z,92.10
2019-02-27T01:44:35.838Z,92.20
2019-02-27T01:47:04.255Z,92.20
2019-02-27T01:49:32.626Z,92.10
2019-02-27T01:52:02.106Z,92.00
2019-02-27T01:54:30.802Z,91.90
2019-02-27T01:56:59.919Z,91.60
2019-02-27T01:59:29.255Z,91.70
2019-02-27T02:01:57.739Z,91.80
2019-02-27T02:04:26.163Z,91.90
2019-02-27T02:06:54.578Z,92.00
2019-02-27T02:09:34.120Z,92.10
2019-02-27T02:12:08.995Z,92.10
2019-02-27T02:15:03.151Z,92.00
2019-02-27T02:17:43.687Z,92.20
2019-02-27T02:20:33.404Z,92.00
2019-02-27T02:23:14.001Z,92.10
2019-02-27T02:26:01.126Z,92.10
2019-02-27T02:29:03.936Z,92.20
2019-02-27T02:31:41.223Z,92.20
2019-02-27T02:34:27.894Z,92.20
2019-02-27T02:37:28.366Z,92.30
2019-02-27T02:40:00.112Z,92.40
2019-02-27T02:43:06.695Z,92.40
2019-02-27T02:45:38.365Z,92.80
2019-02-27T02:48:21.613Z,92.40
2019-02-27T02:51:16.036Z,92.40
2019-02-27T02:54:00.331Z,92.30
2019-02-27T02:56:32.856Z,92.10
2019-02-27T02:59:33.188Z,92.40
2019-02-27T03:02:10.659Z,92.40
2019-02-27T03:04:47.968Z,92.30
2019-02-27T03:07:24.595Z,92.40
2019-02-27T03:10:27.847Z,92.30
2019-02-27T03:13:05.999Z,92.20
2019-02-27T03:15:39.023Z,92.70
2019-02-27T03:18:19.723Z,92.40
2019-02-27T03:21:03.126Z,92.40
2019-02-27T03:23:40.784Z,92.40
2019-02-27T03:26:51.673Z,92.40
2019-02-27T03:29:37.357Z,92.40
2019-02-27T03:32:21.184Z,92.40
2019-02-27T03:35:18.395Z,92.50
2019-02-27T03:37:52.618Z,92.50
2019-02-27T03:40:45.031Z,92.50
2019-02-27T03:43:19.724Z,92.50
2019-02-27T03:45:54.322Z,92.50
2019-02-27T03:48:43.891Z,92.60
2019-02-27T03:51:49.409Z,92.50
2019-02-27T03:54:26.975Z,92.60
2019-02-27T03:56:58.607Z,92.60
2019-02-27T03:59:30.247Z,92.60
2019-02-27T04:02:16.964Z,92.60
2019-02-27T04:05:07.151Z,92.80
2019-02-27T04:07:57.370Z,92.60
2019-02-27T04:10:30.937Z,92.70
2019-02-27T04:12:55.924Z,92.60
2019-02-27T04:15:24.405Z,92.70
2019-02-27T04:17:53.024Z,92.70
2019-02-27T04:20:21.709Z,92.70
2019-02-27T04:22:50.119Z,92.80
2019-02-27T04:25:18.574Z,93.00
2019-02-27T04:27:46.965Z,92.70
2019-02-27T04:30:16.742Z,92.70
2019-02-27T04:32:48.717Z,92.80
2019-02-27T04:35:15.305Z,92.80
2019-02-27T04:37:43.714Z,92.80
2019-02-27T04:40:12.146Z,92.80
2019-02-27T04:42:40.552Z,92.90
2019-02-27T04:45:12.363Z,92.90
2019-02-27T04:47:41.862Z,92.90
2019-02-27T04:50:11.276Z,92.90
2019-02-27T04:52:40.375Z,92.80
2019-02-27T04:55:08.795Z,93.20
2019-02-27T04:57:37.234Z,93.00
2019-02-27T05:00:08.421Z,93.00
2019-02-27T05:02:36.786Z,93.10
2019-02-27T05:05:08.573Z,93.20
2019-02-27T05:07:37.017Z,93.10
2019-02-27T05:10:08.031Z,93.20
2019-02-27T05:12:35.715Z,93.20
2019-02-27T05:15:05.186Z,93.30
2019-02-27T05:17:33.587Z,93.30
2019-02-27T05:20:02.079Z,93.20
2019-02-27T05:22:30.496Z,93.40
2019-02-27T05:24:58.991Z,93.40
2019-02-27T05:27:27.452Z,93.40
2019-02-27T05:29:55.861Z,93.50
2019-02-27T05:32:27.908Z,93.50
2019-02-27T05:34:54.327Z,93.50
2019-02-27T05:37:22.741Z,93.50
2019-02-27T05:39:51.787Z,93.60
2019-02-27T05:42:20.246Z,93.60
2019-02-27T05:44:48.742Z,93.60
2019-02-27T05:47:17.162Z,93.60
2019-02-27T05:49:45.667Z,93.60
2019-02-27T05:52:14.421Z,93.60
2019-02-27T05:54:43.578Z,93.70
2019-02-27T05:57:11.951Z,93.60
2019-02-27T05:59:40.367Z,93.70
2019-02-27T06:02:10.893Z,93.70
2019-02-27T06:04:38.922Z,93.90
2019-02-27T06:07:07.331Z,93.90
2019-02-27T06:09:35.751Z,93.90
2019-02-27T06:12:06.973Z,93.90
2019-02-27T06:14:34.232Z,93.90
2019-02-27T06:17:02.823Z,93.80
2019-02-27T06:19:33.717Z,93.80
2019-02-27T06:22:01.311Z,93.70
2019-02-27T06:24:29.688Z,93.80
2019-02-27T06:26:58.075Z,93.80
2019-02-27T06:29:28.281Z,93.80
2019-02-27T06:31:56.615Z,93.80
2019-02-27T06:34:25.433Z,93.80
2019-02-27T06:36:53.914Z,93.60
2019-02-27T06:39:22.332Z,93.60
2019-02-27T06:41:50.925Z,93.70
2019-02-27T06:44:19.342Z,93.60
2019-02-27T06:46:47.788Z,93.60
2019-02-27T06:49:18.312Z,93.60
2019-02-27T06:51:46.273Z,93.50
2019-02-27T06:54:18.177Z,93.50
2019-02-27T06:56:44.889Z,93.50
2019-02-27T06:59:13.298Z,93.60
2019-02-27T07:01:41.780Z,93.70
2019-02-27T07:04:10.198Z,93.50
2019-02-27T07:06:38.682Z,93.50
2019-02-27T07:09:11.407Z,93.70
2019-02-27T07:11:37.222Z,93.60
2019-02-27T07:14:05.696Z,93.70
2019-02-27T07:16:34.179Z,93.60
2019-02-27T07:19:02.601Z,93.60
2019-02-27T07:21:32.810Z,93.50
2019-02-27T07:24:01.158Z,93.50
2019-02-27T07:26:29.603Z,93.40
2019-02-27T07:28:57.987Z,93.50
2019-02-27T07:31:26.413Z,93.40
2019-02-27T07:33:54.898Z,93.60
2019-02-27T07:36:23.318Z,93.50
2019-02-27T07:38:54.422Z,93.50
2019-02-27T07:41:21.882Z,93.50
2019-02-27T07:43:50.339Z,93.40
2019-02-27T07:46:22.208Z,93.30
2019-02-27T07:48:49.066Z,93.20
2019-02-27T07:51:17.482Z,93.20
2019-02-27T07:53:46.181Z,93.20
2019-02-27T07:56:14.602Z,93.20
2019-02-27T07:58:43.102Z,93.10
2019-02-27T08:01:11.522Z,92.90
2019-02-27T08:03:39.999Z,93.00
2019-02-27T08:06:08.417Z,92.80
2019-02-27T08:08:36.913Z,92.70
2019-02-27T08:11:05.335Z,92.40
2019-02-27T08:13:33.819Z,92.40
2019-02-27T08:16:02.405Z,92.40
2019-02-27T08:18:36.701Z,92.30
2019-02-27T08:21:00.975Z,92.20
2019-02-27T08:23:29.386Z,92.30
2019-02-27T08:25:57.829Z,92.40
2019-02-27T08:28:26.309Z,92.20
2019-02-27T08:30:54.681Z,91.90
2019-02-27T08:33:23.059Z,91.80
2019-02-27T08:35:51.478Z,91.60
2019-02-27T08:38:19.967Z,91.20
2019-02-27T08:40:48.371Z,90.90
2019-02-27T08:43:16.879Z,90.80
2019-02-27T08:45:45.359Z,90.60
2019-02-27T08:48:16.904Z,90.40
2019-02-27T08:50:43.954Z,90.40
2019-02-27T08:53:12.363Z,90.60
2019-02-27T08:55:40.850Z,90.40
2019-02-27T08:58:09.266Z,90.30
2019-02-27T09:00:37.918Z,90.30
2019-02-27T09:03:06.546Z,90.20
2019-02-27T09:05:35.580Z,89.90
2019-02-27T09:08:04.010Z,89.70
2019-02-27T09:10:32.516Z,89.90
2019-02-27T09:13:05.282Z,89.70
2019-02-27T09:15:31.136Z,89.30
2019-02-27T09:18:01.742Z,89.90
2019-02-27T09:20:29.719Z,90.00
2019-02-27T09:22:58.152Z,89.10
2019-02-27T09:25:26.623Z,88.60
2019-02-27T09:27:55.051Z,88.10
2019-02-27T09:30:29.330Z,87.90
2019-02-27T09:32:56.482Z,88.00
2019-02-27T09:35:24.970Z,87.40
2019-02-27T09:37:53.388Z,86.80
2019-02-27T09:40:26.942Z,86.30
2019-02-27T09:42:55.354Z,85.70
2019-02-27T09:45:29.636Z,86.00
2019-02-27T09:47:59.890Z,85.30
2019-02-27T09:50:39.807Z,84.90
2019-02-27T09:53:08.223Z,84.50
2019-02-27T09:55:36.699Z,84.10
2019-02-27T09:58:10.114Z,83.80
2019-02-27T10:00:38.222Z,84.20
2019-02-27T10:03:06.741Z,83.80
2019-02-27T10:05:36.745Z,83.70
2019-02-27T10:08:07.597Z,83.20
2019-02-27T10:10:35.597Z,83.00
2019-02-27T10:13:07.884Z,82.20
2019-02-27T10:15:36.899Z,81.70
2019-02-27T10:18:05.464Z,81.30
2019-02-27T10:20:36.997Z,80.60
2019-02-27T10:23:30.429Z,80.60
2019-02-27T10:25:56.534Z,80.20
2019-02-27T10:28:24.993Z,79.80
2019-02-27T10:30:53.420Z,80.10
2019-02-27T10:33:21.977Z,80.00
2019-02-27T10:35:50.403Z,79.90
2019-02-27T10:38:18.890Z,79.60
2019-02-27T10:40:47.319Z,79.00
2019-02-27T10:43:15.809Z,79.60
2019-02-27T10:45:48.251Z,79.20
2019-02-27T10:48:14.431Z,79.90
2019-02-27T10:50:42.840Z,79.50
2019-02-27T10:53:11.341Z,79.30
2019-02-27T10:55:39.738Z,80.00
2019-02-27T10:58:12.818Z,79.80
2019-02-27T11:00:38.226Z,79.30
2019-02-27T11:03:06.718Z,79.60
2019-02-27T11:05:37.374Z,79.50
2019-02-27T11:08:05.876Z,79.20
2019-02-27T11:10:34.449Z,79.40
2019-02-27T11:13:05.965Z,79.40
2019-02-27T11:15:33.016Z,79.70
2019-02-27T11:18:05.386Z,80.10
2019-02-27T11:20:31.654Z,80.40
2019-02-27T11:23:00.072Z,80.60
2019-02-27T11:25:29.847Z,80.10
2019-02-27T11:27:58.263Z,80.00
2019-02-27T11:30:30.022Z,79.30
2019-02-27T11:32:58.464Z,78.70
2019-02-27T11:35:26.916Z,78.70
2019-02-27T11:37:55.339Z,78.50
2019-02-27T11:40:24.968Z,78.00
2019-02-27T11:42:53.389Z,77.70
2019-02-27T11:45:24.639Z,77.80
2019-02-27T11:47:52.014Z,78.10
2019-02-27T11:53:01.904Z,77.90
2019-02-27T11:55:26.933Z,77.60
2019-02-27T11:57:55.372Z,78.10
2019-02-27T12:00:28.274Z,78.10
2019-02-27T12:02:57.225Z,78.90
2019-02-27T12:05:30.822Z,79.20
2019-02-27T12:10:33.384Z,79.70
2019-02-27T12:13:01.863Z,80.40
2019-02-27T12:15:30.286Z,80.10
2019-02-27T12:18:00.593Z,80.30
2019-02-27T12:20:28.878Z,81.40
2019-02-27T12:22:57.291Z,80.90
2019-02-27T12:25:28.936Z,81.00
2019-02-27T12:27:56.990Z,80.90
2019-02-27T12:30:29.903Z,81.20
2019-02-27T12:32:58.327Z,81.30
2019-02-27T12:35:29.179Z,81.50
2019-02-27T12:37:57.597Z,81.20
2019-02-27T12:40:26.096Z,81.00
2019-02-27T12:42:54.516Z,80.30
2019-02-27T12:45:26.490Z,79.90
2019-02-27T12:47:55.147Z,79.70
2019-02-27T12:50:26.568Z,79.20
2019-02-27T12:52:55.227Z,79.50
2019-02-27T12:55:23.710Z,79.40
2019-02-27T12:57:52.992Z,78.50
2019-02-27T13:00:32.923Z,79.40
2019-02-27T13:03:01.349Z,79.20
2019-02-27T13:05:29.771Z,80.20
2019-02-27T13:07:58.251Z,80.50
2019-02-27T13:10:27.400Z,81.20
2019-02-27T13:12:55.830Z,81.30
2019-02-27T13:15:25.641Z,81.70
2019-02-27T13:20:43.019Z,83.00
2019-02-27T13:23:10.620Z,83.50
2019-02-27T13:25:39.034Z,83.90
2019-02-27T13:28:07.538Z,84.30
2019-02-27T13:30:35.952Z,84.10
2019-02-27T13:33:04.428Z,84.10
2019-02-27T13:35:32.847Z,83.80
2019-02-27T13:38:01.330Z,83.40
2019-02-27T13:40:35.165Z,82.80
2019-02-27T13:43:01.295Z,82.50
2019-02-27T13:45:31.969Z,81.90
2019-02-27T13:48:04.909Z,82.00
2019-02-27T13:50:30.585Z,81.90
2019-02-27T13:52:59.084Z,81.90
2019-02-27T13:55:27.497Z,82.00
2019-02-27T13:57:58.855Z,82.00
2019-02-27T14:00:34.337Z,82.00
2019-02-27T14:03:02.839Z,82.20
2019-02-27T14:05:35.155Z,82.30
2019-02-27T14:08:01.329Z,82.30
2019-02-27T14:10:30.877Z,82.70
2019-02-27T14:12:59.291Z,83.80
2019-02-27T14:15:28.206Z,84.30
2019-02-27T14:17:56.972Z,84.70
2019-02-27T14:20:27.070Z,85.20
2019-02-27T14:22:55.601Z,85.30
2019-02-27T14:25:32.630Z,85.30
2019-02-27T14:27:58.912Z,85.30
2019-02-27T14:30:36.661Z,85.50
2019-02-27T14:33:05.162Z,85.50
2019-02-27T14:35:36.338Z,85.40
2019-02-27T14:38:03.706Z,85.30
2019-02-27T14:40:32.131Z,85.00
2019-02-27T14:43:00.551Z,84.70
2019-02-27T14:45:28.976Z,84.50
2019-02-27T14:47:59.065Z,84.30
2019-02-27T14:50:27.615Z,84.30
2019-02-27T14:52:56.032Z,84.50
2019-02-27T14:55:24.452Z,84.60
2019-02-27T14:57:53.940Z,84.60
2019-02-27T15:00:27.747Z,85.00
2019-02-27T15:02:56.559Z,85.00
2019-02-27T15:05:25.135Z,85.00
2019-02-27T15:07:54.803Z,85.10
2019-02-27T15:10:24.082Z,85.00
2019-02-27T15:12:54.987Z,85.10
2019-02-27T15:15:24.696Z,85.10
2019-02-27T15:17:53.193Z,85.00
2019-02-27T15:20:23.652Z,84.90
2019-02-27T15:22:52.802Z,84.90
2019-02-27T15:25:22.092Z,85.00
2019-02-27T15:27:50.587Z,84.80
2019-02-27T15:30:29.498Z,84.80
2019-02-27T15:32:57.988Z,85.00
2019-02-27T15:35:28.311Z,85.00
2019-02-27T15:37:56.515Z,85.20
2019-02-27T15:40:29.630Z,85.40
2019-02-27T15:42:57.368Z,85.50
2019-02-27T15:45:26.683Z,85.60
2019-02-27T15:47:55.210Z,85.50
2019-02-27T15:50:34.839Z,85.60
2019-02-27T15:53:03.252Z,85.60
2019-02-27T15:55:34.312Z,85.90
2019-02-27T15:58:01.896Z,85.80
2019-02-27T16:00:30.389Z,85.70
2019-02-27T16:02:59.075Z,86.70
2019-02-27T16:05:31.420Z,86.40
2019-02-27T16:07:57.642Z,86.70
2019-02-27T16:10:28.234Z,87.20
2019-02-27T16:12:59.817Z,87.30
2019-02-27T16:15:26.930Z,87.70
2019-02-27T16:17:55.354Z,87.90
2019-02-27T16:20:25.182Z,88.20
2019-02-27T16:22:53.590Z,88.60
2019-02-27T16:25:29.138Z,88.90
2019-02-27T16:27:57.568Z,89.40
2019-02-27T16:30:32.534Z,89.70
2019-02-27T16:33:00.336Z,90.00
2019-02-27T16:35:28.788Z,90.10
2019-02-27T16:37:57.942Z,90.20
2019-02-27T16:40:30.370Z,90.20
2019-02-27T16:42:58.859Z,90.30
2019-02-27T16:45:33.536Z,90.40
2019-02-27T16:48:01.078Z,90.50
2019-02-27T16:50:29.560Z,90.60
2019-02-27T16:52:58.064Z,90.60
2019-02-27T16:55:27.524Z,90.80
2019-02-27T16:57:57.508Z,90.90
2019-02-27T17:00:30.555Z,91.00
2019-02-27T17:02:58.970Z,91.00
2019-02-27T17:05:27.461Z,91.00
2019-02-27T17:08:00.397Z,91.10
2019-02-27T17:10:32.267Z,91.10
2019-02-27T17:13:00.848Z,91.20
2019-02-27T17:15:34.590Z,91.30
2019-02-27T17:17:59.453Z,91.40
2019-02-27T17:20:28.504Z,91.50
2019-02-27T17:22:57.001Z,91.60
2019-02-27T17:25:28.978Z,92.10
2019-02-27T17:27:55.563Z,91.80
2019-02-27T17:30:25.924Z,91.80
2019-02-27T17:32:54.340Z,91.80
2019-02-27T17:35:23.573Z,92.00
2019-02-27T17:37:52.709Z,92.00
2019-02-27T17:40:21.136Z,92.20
2019-02-27T17:45:27.650Z,92.10
2019-02-27T17:47:56.127Z,92.10
2019-02-27T17:50:24.543Z,92.20
2019-02-27T17:52:53.108Z,92.20
2019-02-27T17:55:21.540Z,92.10
2019-02-27T17:57:50.032Z,91.80
2019-02-27T18:00:24.751Z,92.00
2019-02-27T18:02:53.210Z,92.10
2019-02-27T18:05:22.284Z,92.20
2019-02-27T18:07:51.706Z,92.20
2019-02-27T18:10:20.223Z,92.30
2019-02-27T18:12:48.623Z,92.30
2019-02-27T18:15:39.626Z,92.10
2019-02-27T18:18:10.523Z,92.00
2019-02-27T18:20:38.198Z,91.80
2019-02-27T18:23:06.583Z,91.70
2019-02-27T18:25:35.062Z,91.50
2019-02-27T18:28:03.492Z,91.40
2019-02-27T18:30:31.982Z,91.30
2019-02-27T18:33:01.181Z,91.30
2019-02-27T18:35:29.927Z,91.10
2019-02-27T18:37:58.410Z,91.10
2019-02-27T18:40:26.898Z,91.10
2019-02-27T18:42:56.500Z,91.00
2019-02-27T18:45:28.149Z,90.90
2019-02-27T18:47:58.607Z,90.80
2019-02-27T18:50:26.703Z,90.80
2019-02-27T18:52:55.139Z,90.70
2019-02-27T18:55:29.274Z,90.80
2019-02-27T18:57:56.306Z,90.80
2019-02-27T19:00:29.069Z,90.80
2019-02-27T19:03:00.742Z,90.90
2019-02-27T19:05:29.225Z,91.00
2019-02-27T19:07:58.242Z,91.10
2019-02-27T19:10:26.720Z,91.20
2019-02-27T19:12:55.129Z,91.20
2019-02-27T19:15:25.094Z,91.40
2019-02-27T19:17:53.511Z,91.60
2019-02-27T19:20:25.286Z,91.80
2019-02-27T19:22:53.917Z,91.90
2019-02-27T19:25:22.412Z,92.00
2019-02-27T19:27:50.785Z,92.00
2019-02-27T19:30:19.534Z,92.00
2019-02-27T19:32:48.664Z,92.00
2019-02-27T19:35:21.289Z,92.00
2019-02-27T19:37:47.371Z,92.10
2019-02-27T19:40:18.657Z,92.20
2019-02-27T19:42:52.458Z,92.20
2019-02-27T19:45:20.875Z,92.20
2019-02-27T19:47:54.083Z,92.20
2019-02-27T19:50:19.500Z,92.30
2019-02-27T19:52:47.946Z,92.30
2019-02-27T19:55:16.358Z,92.30
2019-02-27T19:57:44.788Z,92.70
2019-02-27T20:00:19.124Z,92.30
2019-02-27T20:02:47.549Z,92.30
2019-02-27T20:05:16.400Z,92.40
2019-02-27T20:07:46.028Z,92.50
2019-02-27T20:10:16.666Z,92.40
2019-02-27T20:12:47.791Z,92.40
2019-02-27T20:15:25.192Z,92.30
2019-02-27T20:17:53.675Z,92.20
2019-02-27T20:20:22.648Z,92.10
2019-02-27T20:22:53.492Z,92.10
2019-02-27T20:25:29.240Z,92.00
2019-02-27T20:27:58.687Z,92.00
2019-02-27T20:30:27.445Z,92.00
2019-02-27T20:32:56.022Z,92.00
2019-02-27T20:35:24.444Z,92.00
2019-02-27T20:37:52.935Z,92.00
2019-02-27T20:40:21.348Z,92.00
2019-02-27T20:42:53.735Z,92.00
2019-02-27T20:45:21.232Z,91.90
2019-02-27T20:47:50.943Z,92.10
2019-02-27T20:50:34.942Z,92.00
2019-02-27T20:52:58.463Z,92.10
2019-02-27T20:55:26.955Z,92.00
2019-02-27T20:57:55.373Z,92.00
2019-02-27T21:00:24.007Z,92.00
2019-02-27T21:02:53.465Z,92.00
2019-02-27T21:05:23.647Z,92.00
2019-02-27T21:07:52.080Z,92.00
2019-02-27T21:10:29.599Z,92.00
2019-02-27T21:12:58.021Z,92.00
2019-02-27T21:15:29.304Z,92.00
2019-02-27T21:17:58.537Z,92.00
2019-02-27T21:20:27.338Z,92.00
2019-02-27T21:22:55.747Z,92.00
2019-02-27T21:25:24.305Z,92.10
2019-02-27T21:27:52.731Z,92.10
2019-02-27T21:30:25.463Z,92.10
2019-02-27T21:32:53.875Z,92.20
2019-02-27T21:35:22.290Z,92.20
2019-02-27T21:37:51.067Z,92.30
2019-02-27T21:40:19.971Z,92.60
2019-02-27T21:42:50.844Z,92.20
2019-02-27T21:45:19.651Z,92.20
2019-02-27T21:47:51.294Z,92.10
2019-02-27T21:50:19.599Z,92.10
2019-02-27T21:52:47.987Z,92.10
2019-02-27T21:55:16.471Z,92.10
2019-02-27T21:57:44.892Z,92.10
2019-02-27T22:00:24.751Z,91.90
2019-02-27T22:02:54.665Z,91.90
2019-02-27T22:05:23.175Z,91.90
2019-02-27T22:07:51.710Z,91.90
2019-02-27T22:10:20.650Z,91.70
2019-02-27T22:12:49.203Z,91.70
2019-02-27T22:15:22.875Z,91.60
2019-02-27T22:17:51.018Z,91.60
2019-02-27T22:20:25.726Z,91.70
2019-02-27T22:22:51.150Z,91.60
2019-02-27T22:25:19.567Z,91.50
2019-02-27T22:27:48.118Z,91.40
2019-02-27T22:30:23.137Z,91.40
2019-02-27T22:32:51.678Z,91.30
2019-02-27T22:35:20.103Z,91.40
2019-02-27T22:37:52.767Z,91.40
2019-02-27T22:40:27.195Z,91.40
2019-02-27T22:42:55.318Z,91.30
2019-02-27T22:45:23.713Z,91.20
2019-02-27T22:47:53.888Z,91.20
2019-02-27T22:50:22.231Z,91.10
2019-02-27T22:52:54.101Z,91.00
2019-02-27T22:55:21.027Z,91.30
2019-02-27T22:57:49.524Z,90.90
2019-02-27T23:00:31.815Z,90.90
2019-02-27T23:03:00.223Z,90.80
2019-02-27T23:05:28.639Z,90.80
2019-02-27T23:07:57.066Z,90.80
2019-02-27T23:10:28.147Z,90.90
2019-02-27T23:12:55.535Z,90.90
2019-02-27T23:15:24.798Z,90.90
2019-02-27T23:17:53.956Z,90.80
2019-02-27T23:20:22.371Z,90.90
2019-02-27T23:22:50.890Z,90.80
2019-02-27T23:25:19.306Z,90.80
2019-02-27T23:27:47.728Z,91.00
2019-02-27T23:30:16.218Z,91.10
2019-02-27T23:32:44.649Z,91.10
2019-02-27T23:35:16.008Z,91.30
2019-02-27T23:38:03.433Z,91.40
2019-02-27T23:40:32.538Z,91.50
2019-02-27T23:43:03.356Z,91.60
2019-02-27T23:45:31.094Z,91.60
2019-02-27T23:48:02.152Z,91.60
2019-02-27T23:50:29.656Z,91.70
2019-02-27T23:52:58.070Z,91.70
2019-02-27T23:55:26.557Z,91.70
2019-02-27T23:57:57.529Z,91.60
